Terminal Aerodrome Forecast
Issued by NWS

Home | Current Version | Previous Version | Text Only | Print | Product List | Glossary On
Versions: 1 2 3 4 5 6 7 8 9 10 11 12 13 14 15 16 17 18 19 20 21 22 23 24 25 26 27 28 29 30 31 32
000
FTAK31 PAFA 271138
TAFAUN
TAF
PAUN 271138Z 2712/2812 13006KT P6SM FEW200
     FM272100 14010KT P6SM VCSH BKN040 BKN080
     FM280500 14011G18KT P6SM -SHRA SCT025 OVC040
     FM281000 14016G24KT 5SM -SHRA FEW015 BKN025 OVC040=

USA.gov is the U.S. government's official web portal to all federal, state and local government web resources and services.